createdAt,value
2022-11-24T00:00:48.893Z,52.47
2022-11-24T00:01:48.882Z,53.93
2022-11-24T00:02:48.764Z,52.93
2022-11-24T00:03:48.768Z,52.27
2022-11-24T00:04:48.736Z,51.20
2022-11-24T00:05:48.797Z,50.24
2022-11-24T00:06:48.744Z,54.46
2022-11-24T00:07:48.823Z,54.44
2022-11-24T00:08:48.721Z,51.72
2022-11-24T00:09:48.735Z,51.95
2022-11-24T00:10:48.694Z,52.07
2022-11-24T00:11:48.627Z,53.73
2022-11-24T00:12:48.634Z,53.28
2022-11-24T00:13:48.613Z,54.05
2022-11-24T00:14:48.569Z,53.14
2022-11-24T00:15:48.560Z,52.30
2022-11-24T00:17:14.382Z,53.84
2022-11-24T00:17:48.526Z,55.14
2022-11-24T00:18:48.568Z,54.59
2022-11-24T00:19:48.538Z,53.21
2022-11-24T00:20:48.610Z,51.81
2022-11-24T00:21:48.607Z,51.52
2022-11-24T00:22:48.731Z,52.48
2022-11-24T00:23:48.592Z,52.53
2022-11-24T00:24:48.749Z,55.17
2022-11-24T00:25:48.577Z,50.83
2022-11-24T00:26:48.714Z,51.88
2022-11-24T00:27:48.651Z,54.31
2022-11-24T00:28:48.567Z,53.58
2022-11-24T00:29:48.565Z,55.37
2022-11-24T00:30:48.695Z,53.38
2022-11-24T00:31:48.601Z,50.98
2022-11-24T00:32:48.557Z,50.49
2022-11-24T00:33:48.629Z,52.81
2022-11-24T00:34:48.540Z,53.39
2022-11-24T00:35:48.513Z,50.29
2022-11-24T00:36:48.544Z,52.53
2022-11-24T00:37:48.427Z,46.66
2022-11-24T00:38:48.428Z,45.91
2022-11-24T00:39:48.506Z,46.51
2022-11-24T00:40:48.414Z,48.50
2022-11-24T00:41:48.412Z,53.10
2022-11-24T00:42:48.430Z,50.15
2022-11-24T00:43:48.383Z,54.58
2022-11-24T00:44:49.525Z,54.24
2022-11-24T00:45:49.494Z,51.04
2022-11-24T00:46:48.516Z,51.18
2022-11-24T00:47:48.542Z,50.79
2022-11-24T00:48:48.471Z,48.32
2022-11-24T00:49:48.489Z,48.31
2022-11-24T00:50:48.444Z,51.30
2022-11-24T00:51:48.455Z,53.80
2022-11-24T00:52:48.434Z,50.23
2022-11-24T00:53:48.383Z,52.53
2022-11-24T00:54:48.371Z,54.32
2022-11-24T00:55:48.478Z,56.55
2022-11-24T00:56:48.366Z,52.30
2022-11-24T00:57:49.349Z,50.19
2022-11-24T00:58:48.361Z,50.01
2022-11-24T00:59:48.355Z,49.57
2022-11-24T01:00:48.383Z,52.00
2022-11-24T01:01:48.404Z,48.77
2022-11-24T01:02:48.293Z,51.05
2022-11-24T01:03:48.326Z,52.37
2022-11-24T01:04:48.381Z,49.25
2022-11-24T01:05:48.332Z,48.72
2022-11-24T01:06:48.321Z,48.43
2022-11-24T01:07:48.261Z,49.87
2022-11-24T01:08:48.352Z,49.57
2022-11-24T01:09:48.225Z,51.29
2022-11-24T01:10:48.210Z,50.74
2022-11-24T01:11:48.274Z,51.21
2022-11-24T01:12:48.351Z,52.54
2022-11-24T01:13:48.244Z,51.15
2022-11-24T01:14:48.262Z,57.73
2022-11-24T01:15:48.257Z,53.95
2022-11-24T01:17:08.750Z,53.72
2022-11-24T01:17:48.136Z,47.46
2022-11-24T01:18:48.226Z,47.40
2022-11-24T01:19:48.204Z,50.17
2022-11-24T01:20:48.260Z,49.03
2022-11-24T01:21:48.246Z,53.16
2022-11-24T01:22:48.462Z,47.10
2022-11-24T01:23:48.222Z,49.28
2022-11-24T01:24:48.210Z,52.03
2022-11-24T01:25:48.253Z,54.29
2022-11-24T01:26:48.155Z,51.95
2022-11-24T01:27:48.101Z,48.59
2022-11-24T01:28:48.188Z,52.73
2022-11-24T01:29:48.098Z,47.49
2022-11-24T01:30:48.178Z,47.56
2022-11-24T01:31:47.992Z,50.00
2022-11-24T01:32:48.091Z,51.45
2022-11-24T01:33:48.074Z,51.13
2022-11-24T01:34:48.142Z,52.40
2022-11-24T01:35:48.185Z,47.83
2022-11-24T01:36:48.078Z,49.46
2022-11-24T01:37:48.061Z,52.89
2022-11-24T01:38:48.128Z,47.89
2022-11-24T01:39:48.109Z,48.08
2022-11-24T01:40:48.067Z,48.86
2022-11-24T01:41:48.069Z,50.74
2022-11-24T01:42:48.087Z,49.08
2022-11-24T01:43:48.020Z,51.93
2022-11-24T01:44:48.093Z,49.41
2022-11-24T01:45:48.128Z,50.94
2022-11-24T01:46:48.015Z,49.78
2022-11-24T01:47:47.936Z,48.76
2022-11-24T01:48:47.936Z,49.49
2022-11-24T01:49:47.989Z,53.69
2022-11-24T01:50:47.931Z,49.68
2022-11-24T01:51:47.886Z,50.41
2022-11-24T01:52:47.924Z,51.08
2022-11-24T01:53:48.088Z,51.62
2022-11-24T01:54:47.976Z,53.32
2022-11-24T01:55:48.022Z,48.20
2022-11-24T01:56:48.066Z,49.39
2022-11-24T01:57:48.060Z,47.80
2022-11-24T01:58:48.061Z,47.28
2022-11-24T01:59:47.864Z,51.58
2022-11-24T02:00:48.050Z,55.68
2022-11-24T02:01:48.021Z,55.90
2022-11-24T02:02:47.857Z,51.75
2022-11-24T02:03:47.954Z,49.49
2022-11-24T02:04:47.965Z,47.44
2022-11-24T02:05:47.905Z,45.95
2022-11-24T02:06:47.935Z,46.30
2022-11-24T02:07:47.871Z,50.93
2022-11-24T02:08:47.760Z,52.19
2022-11-24T02:09:47.899Z,50.65
2022-11-24T02:10:47.905Z,53.04
2022-11-24T02:11:47.912Z,52.86
2022-11-24T02:12:47.851Z,52.37
2022-11-24T02:13:47.861Z,48.81
2022-11-24T02:14:47.860Z,50.94
2022-11-24T02:15:47.864Z,50.97
2022-11-24T02:16:47.824Z,51.91
2022-11-24T02:17:47.869Z,52.74
2022-11-24T02:18:47.887Z,48.22
2022-11-24T02:19:47.874Z,52.15
2022-11-24T02:20:47.831Z,49.17
2022-11-24T02:21:47.886Z,52.36
2022-11-24T02:22:47.975Z,50.40
2022-11-24T02:23:47.884Z,49.73
2022-11-24T02:24:47.765Z,49.09
2022-11-24T02:25:47.712Z,51.07
2022-11-24T02:26:47.695Z,47.63
2022-11-24T02:27:53.544Z,48.39
2022-11-24T02:28:49.720Z,49.19
2022-11-24T02:29:47.651Z,52.61
2022-11-24T02:30:47.698Z,47.39
2022-11-24T02:31:47.668Z,52.47
2022-11-24T02:32:47.668Z,54.08
2022-11-24T02:33:47.699Z,53.94
2022-11-24T02:34:47.610Z,53.19
2022-11-24T02:35:47.702Z,55.25
2022-11-24T02:36:47.697Z,50.78
2022-11-24T02:38:01.572Z,55.29
2022-11-24T02:38:47.613Z,54.91
2022-11-24T02:39:47.737Z,52.52
2022-11-24T02:40:47.715Z,53.21
2022-11-24T02:42:08.731Z,50.92
2022-11-24T02:42:47.579Z,48.85
2022-11-24T02:43:47.644Z,52.09
2022-11-24T02:44:47.779Z,53.18
2022-11-24T02:45:47.559Z,52.62
2022-11-24T02:46:47.764Z,49.72
2022-11-24T02:47:47.659Z,53.27
2022-11-24T02:48:47.551Z,52.75
2022-11-24T02:49:47.578Z,53.93
2022-11-24T02:50:47.540Z,51.60
2022-11-24T02:51:47.562Z,55.21
2022-11-24T02:52:47.519Z,51.98
2022-11-24T02:53:47.699Z,52.88
2022-11-24T02:54:47.603Z,50.62
2022-11-24T02:55:47.750Z,52.04
2022-11-24T02:56:47.557Z,50.43
2022-11-24T02:57:47.584Z,49.19
2022-11-24T02:58:48.430Z,48.33
2022-11-24T02:59:47.528Z,48.00
2022-11-24T03:00:47.579Z,51.49
2022-11-24T03:01:47.534Z,52.90
2022-11-24T03:02:47.579Z,54.74
2022-11-24T03:03:47.535Z,50.50
2022-11-24T03:04:47.529Z,53.13
2022-11-24T03:05:47.568Z,54.15
2022-11-24T03:06:47.570Z,53.03
2022-11-24T03:07:47.546Z,53.12
2022-11-24T03:08:47.477Z,52.81
2022-11-24T03:09:47.397Z,51.11
2022-11-24T03:10:47.452Z,54.71
2022-11-24T03:11:47.450Z,54.64
2022-11-24T03:12:47.520Z,53.49
2022-11-24T03:13:47.362Z,52.04
2022-11-24T03:14:47.350Z,53.30
2022-11-24T03:15:47.412Z,52.60
2022-11-24T03:16:47.329Z,50.64
2022-11-24T03:17:47.438Z,48.48
2022-11-24T03:18:47.341Z,51.93
2022-11-24T03:19:47.311Z,53.56
2022-11-24T03:20:47.406Z,56.10
2022-11-24T03:21:47.427Z,52.26
2022-11-24T03:22:47.304Z,52.15
2022-11-24T03:23:47.654Z,55.33
2022-11-24T03:24:47.382Z,54.40
2022-11-24T03:25:47.265Z,51.84
2022-11-24T03:26:47.405Z,51.49
2022-11-24T03:27:47.455Z,52.00
2022-11-24T03:28:47.284Z,53.20
2022-11-24T03:29:47.344Z,54.14
2022-11-24T03:30:47.449Z,50.81
2022-11-24T03:31:47.236Z,54.68
2022-11-24T03:32:47.422Z,55.92
2022-11-24T03:33:47.397Z,53.33
2022-11-24T03:34:47.291Z,57.83
2022-11-24T03:35:47.225Z,53.66
2022-11-24T03:36:47.222Z,57.32
2022-11-24T03:37:47.201Z,54.16
2022-11-24T03:38:47.260Z,53.09
2022-11-24T03:39:47.248Z,53.83
2022-11-24T03:40:47.203Z,54.52
2022-11-24T03:41:47.137Z,53.99
2022-11-24T03:42:47.290Z,52.42
2022-11-24T03:44:07.222Z,53.35
2022-11-24T03:44:47.139Z,50.60
2022-11-24T03:45:47.307Z,52.72
2022-11-24T03:46:47.232Z,55.53
2022-11-24T03:47:47.292Z,55.05
2022-11-24T03:48:47.250Z,56.58
2022-11-24T03:49:47.106Z,54.55
2022-11-24T03:50:47.240Z,53.40
2022-11-24T03:51:47.356Z,52.67
2022-11-24T03:52:47.079Z,56.05
2022-11-24T03:53:47.246Z,51.48
2022-11-24T03:54:47.180Z,55.16
2022-11-24T03:55:47.183Z,53.29
2022-11-24T03:56:47.203Z,53.48
2022-11-24T03:57:47.124Z,51.91
2022-11-24T03:58:47.056Z,54.36
2022-11-24T03:59:47.193Z,54.97
2022-11-24T04:00:47.383Z,53.34
2022-11-24T04:01:47.103Z,52.63
2022-11-24T04:02:47.084Z,54.22
2022-11-24T04:03:47.097Z,54.70
2022-11-24T04:04:49.697Z,52.92
2022-11-24T04:05:48.147Z,53.67
2022-11-24T04:06:47.060Z,57.22
2022-11-24T04:07:47.045Z,58.08
2022-11-24T04:08:47.092Z,55.62
2022-11-24T04:09:47.083Z,55.44
2022-11-24T04:10:47.045Z,56.35
2022-11-24T04:11:47.170Z,55.10
2022-11-24T04:12:47.034Z,55.41
2022-11-24T04:13:46.941Z,55.41
2022-11-24T04:14:47.095Z,56.37
2022-11-24T04:15:47.101Z,56.32
2022-11-24T04:16:46.970Z,57.45
2022-11-24T04:17:47.070Z,57.92
2022-11-24T04:18:47.123Z,56.98
2022-11-24T04:19:46.850Z,57.52
2022-11-24T04:20:46.950Z,55.84
2022-11-24T04:21:47.019Z,55.52
2022-11-24T04:22:46.918Z,55.71
2022-11-24T04:23:49.932Z,56.03
2022-11-24T04:24:46.952Z,55.59
2022-11-24T04:25:46.895Z,57.15
2022-11-24T04:26:46.840Z,56.16
2022-11-24T04:27:46.982Z,57.98
2022-11-24T04:28:46.869Z,56.61
2022-11-24T04:29:46.960Z,57.13
2022-11-24T04:30:46.879Z,58.26
2022-11-24T04:31:46.919Z,57.22
2022-11-24T04:32:48.876Z,56.82
2022-11-24T04:33:46.839Z,56.50
2022-11-24T04:34:46.808Z,56.96
2022-11-24T04:35:46.951Z,56.41
2022-11-24T04:36:46.889Z,58.08
2022-11-24T04:37:46.918Z,58.87
2022-11-24T04:39:24.331Z,58.35
2022-11-24T04:39:47.947Z,58.37
2022-11-24T04:40:46.775Z,55.07
2022-11-24T04:41:46.949Z,55.68
2022-11-24T04:42:49.168Z,57.85
2022-11-24T04:43:47.034Z,57.38
2022-11-24T04:44:46.920Z,56.63
2022-11-24T04:45:46.861Z,57.29
2022-11-24T04:46:46.896Z,56.93
2022-11-24T04:47:46.905Z,56.57
2022-11-24T04:48:46.795Z,56.68
2022-11-24T04:49:46.801Z,57.98
2022-11-24T04:50:46.849Z,57.03
2022-11-24T04:51:46.697Z,58.05
2022-11-24T04:52:46.755Z,57.28
2022-11-24T04:53:46.717Z,56.27
2022-11-24T04:54:46.739Z,56.41
2022-11-24T04:55:46.774Z,56.48
2022-11-24T04:56:46.696Z,57.28
2022-11-24T04:57:46.645Z,58.72
2022-11-24T04:58:46.743Z,57.95
2022-11-24T04:59:46.720Z,56.60
2022-11-24T05:00:46.877Z,56.93
2022-11-24T05:01:46.848Z,58.46
2022-11-24T05:02:46.647Z,56.84
2022-11-24T05:03:47.789Z,56.35
2022-11-24T05:04:46.808Z,57.50
2022-11-24T05:05:46.682Z,57.64
2022-11-24T05:06:46.809Z,59.28
2022-11-24T05:07:47.747Z,59.79
2022-11-24T05:08:46.552Z,60.24
2022-11-24T05:09:59.620Z,60.44
2022-11-24T05:10:47.652Z,58.89
2022-11-24T05:11:46.600Z,58.38
2022-11-24T05:12:51.138Z,58.50
2022-11-24T05:13:47.641Z,59.75
2022-11-24T05:14:46.537Z,58.56
2022-11-24T05:15:46.695Z,59.68
2022-11-24T05:16:46.682Z,58.09
2022-11-24T05:17:46.532Z,58.94
2022-11-24T05:18:46.743Z,59.88
2022-11-24T05:19:46.629Z,57.70
2022-11-24T05:20:46.535Z,59.35
2022-11-24T05:21:46.649Z,57.95
2022-11-24T05:22:46.594Z,57.19
2022-11-24T05:23:46.554Z,56.82
2022-11-24T05:24:47.623Z,58.15
2022-11-24T05:25:47.929Z,57.45
2022-11-24T05:26:47.515Z,58.08
2022-11-24T05:27:46.489Z,58.40
2022-11-24T05:28:46.453Z,59.57
2022-11-24T05:29:46.455Z,61.37
2022-11-24T05:30:46.606Z,60.60
2022-11-24T05:31:46.473Z,61.12
2022-11-24T05:32:46.718Z,60.03
2022-11-24T05:33:46.437Z,60.56
2022-11-24T05:34:46.436Z,62.98
2022-11-24T05:35:46.472Z,61.10
2022-11-24T05:36:46.455Z,58.16
2022-11-24T05:37:46.529Z,58.46
2022-11-24T05:38:46.358Z,59.66
2022-11-24T05:39:46.515Z,60.35
2022-11-24T05:40:46.490Z,61.19
2022-11-24T05:41:46.379Z,60.91
2022-11-24T05:42:48.011Z,60.05
2022-11-24T05:43:47.534Z,60.23
2022-11-24T05:44:46.360Z,60.09
2022-11-24T05:45:46.415Z,60.21
2022-11-24T05:46:46.533Z,61.54
2022-11-24T05:47:46.326Z,60.22
2022-11-24T05:48:46.489Z,59.92
2022-11-24T05:49:46.417Z,61.50
2022-11-24T05:50:46.297Z,62.11
2022-11-24T05:51:46.369Z,62.20
2022-11-24T05:52:46.512Z,60.22
2022-11-24T05:53:46.308Z,62.57
2022-11-24T05:54:46.551Z,63.01
2022-11-24T05:55:46.369Z,62.13
2022-11-24T05:56:46.285Z,62.32
2022-11-24T05:57:46.266Z,61.56
2022-11-24T05:58:46.244Z,60.94
2022-11-24T05:59:46.289Z,61.72
2022-11-24T06:00:46.278Z,60.64
2022-11-24T06:01:46.405Z,60.12
2022-11-24T06:02:47.340Z,60.81
2022-11-24T06:03:46.234Z,60.79
2022-11-24T06:04:46.262Z,61.56
2022-11-24T06:05:46.317Z,62.06
2022-11-24T06:06:46.239Z,61.56
2022-11-24T06:07:46.311Z,59.73
2022-11-24T06:08:46.242Z,60.86
2022-11-24T06:09:46.207Z,59.97
2022-11-24T06:10:46.307Z,60.72
2022-11-24T06:11:46.314Z,60.07
2022-11-24T06:12:46.230Z,60.96
2022-11-24T06:13:46.431Z,62.23
2022-11-24T06:14:46.257Z,60.46
2022-11-24T06:15:46.342Z,60.90
2022-11-24T06:16:46.337Z,61.15
2022-11-24T06:17:46.156Z,60.59
2022-11-24T06:18:46.259Z,60.30
2022-11-24T06:19:46.203Z,61.58
2022-11-24T06:20:57.608Z,61.37
2022-11-24T06:21:53.659Z,61.07
2022-11-24T06:22:46.253Z,61.23
2022-11-24T06:23:46.075Z,61.30
2022-11-24T06:24:46.221Z,62.30
2022-11-24T06:25:50.177Z,62.93
2022-11-24T06:26:48.079Z,63.00
2022-11-24T06:27:46.144Z,62.61
2022-11-24T06:28:47.172Z,62.60
2022-11-24T06:29:46.074Z,62.07
2022-11-24T06:30:46.193Z,62.09
2022-11-24T06:31:46.177Z,63.08
2022-11-24T06:32:49.299Z,63.20
2022-11-24T06:33:47.163Z,62.00
2022-11-24T06:34:46.117Z,61.79
2022-11-24T06:35:45.984Z,61.69
2022-11-24T06:36:46.000Z,62.02
2022-11-24T06:37:46.023Z,63.16
2022-11-24T06:38:46.027Z,61.82
2022-11-24T06:39:45.975Z,60.93
2022-11-24T06:40:48.775Z,61.36
2022-11-24T06:41:45.945Z,61.01
2022-11-24T06:42:45.921Z,61.92
2022-11-24T06:43:45.970Z,64.69
2022-11-24T06:44:45.880Z,62.78
2022-11-24T06:45:46.103Z,63.15
2022-11-24T06:46:46.156Z,62.99
2022-11-24T06:47:45.907Z,62.25
2022-11-24T06:48:46.046Z,62.31
2022-11-24T06:49:46.007Z,61.65
2022-11-24T06:50:45.986Z,61.37
2022-11-24T06:51:45.935Z,61.47
2022-11-24T06:52:45.998Z,61.94
2022-11-24T06:53:45.976Z,62.53
2022-11-24T06:54:46.044Z,62.55
2022-11-24T06:55:45.976Z,62.32
2022-11-24T06:56:45.872Z,62.08
2022-11-24T06:57:45.945Z,62.90
2022-11-24T06:58:45.930Z,63.54
2022-11-24T06:59:45.861Z,62.25
2022-11-24T07:00:45.918Z,62.52
2022-11-24T07:01:45.942Z,61.54
2022-11-24T07:02:46.323Z,61.69
2022-11-24T07:03:46.899Z,60.60
2022-11-24T07:04:45.816Z,59.60
2022-11-24T07:05:45.837Z,60.03
2022-11-24T07:06:46.482Z,61.32
2022-11-24T07:07:45.831Z,62.00
2022-11-24T07:08:45.840Z,62.37
2022-11-24T07:09:45.756Z,64.08
2022-11-24T07:10:45.755Z,63.68
2022-11-24T07:11:45.784Z,64.23
2022-11-24T07:12:45.713Z,62.75
2022-11-24T07:13:45.763Z,63.78
2022-11-24T07:14:45.814Z,63.24
2022-11-24T07:15:45.772Z,60.58
2022-11-24T07:16:45.915Z,60.98
2022-11-24T07:17:45.766Z,60.44
2022-11-24T07:18:45.799Z,61.39
2022-11-24T07:19:45.744Z,62.25
2022-11-24T07:20:45.757Z,60.44
2022-11-24T07:21:45.796Z,60.60
2022-11-24T07:22:45.786Z,60.17
2022-11-24T07:23:45.713Z,57.97
2022-11-24T07:24:45.890Z,59.51
2022-11-24T07:25:45.756Z,60.43
2022-11-24T07:26:45.694Z,62.10
2022-11-24T07:27:45.727Z,60.09
2022-11-24T07:28:45.813Z,60.41
2022-11-24T07:29:45.628Z,61.53
2022-11-24T07:30:45.603Z,60.15
2022-11-24T07:31:45.676Z,61.67
2022-11-24T07:32:45.731Z,62.03
2022-11-24T07:33:45.613Z,59.05
2022-11-24T07:34:45.576Z,59.10
2022-11-24T07:35:45.786Z,59.33
2022-11-24T07:36:45.649Z,61.08
2022-11-24T07:37:46.916Z,61.46
2022-11-24T07:38:47.032Z,59.88
2022-11-24T07:39:45.950Z,60.60
2022-11-24T07:40:45.575Z,60.00
2022-11-24T07:41:45.579Z,59.95
2022-11-24T07:42:45.585Z,59.14
2022-11-24T07:43:45.639Z,59.86
2022-11-24T07:44:45.623Z,60.70
2022-11-24T07:45:45.682Z,59.15
2022-11-24T07:46:45.579Z,59.93
2022-11-24T07:47:45.619Z,60.48
2022-11-24T07:48:45.617Z,58.85
2022-11-24T07:49:45.639Z,60.59
2022-11-24T07:50:46.526Z,60.93
2022-11-24T07:51:45.581Z,61.73
2022-11-24T07:52:45.489Z,62.75
2022-11-24T07:53:45.414Z,62.15
2022-11-24T07:54:45.583Z,61.60
2022-11-24T07:55:45.514Z,62.63
2022-11-24T07:56:45.591Z,62.45
2022-11-24T07:57:45.510Z,62.97
2022-11-24T07:58:49.784Z,62.21
2022-11-24T07:59:47.568Z,63.18
2022-11-24T08:00:45.496Z,62.22
2022-11-24T08:01:45.563Z,62.90
2022-11-24T08:02:45.999Z,61.32
2022-11-24T08:03:45.542Z,62.23
2022-11-24T08:04:45.501Z,62.77
2022-11-24T08:06:16.177Z,60.73
2022-11-24T08:06:47.751Z,62.90
2022-11-24T08:07:46.538Z,65.84
2022-11-24T08:08:45.497Z,69.22
2022-11-24T08:09:45.449Z,66.81
2022-11-24T08:10:45.600Z,70.92
2022-11-24T08:11:45.441Z,59.66
2022-11-24T08:12:45.341Z,61.35
2022-11-24T08:13:45.323Z,60.13
2022-11-24T08:14:45.375Z,59.17
2022-11-24T08:15:45.424Z,60.93
2022-11-24T08:16:45.327Z,60.42
2022-11-24T08:17:45.282Z,58.77
2022-11-24T08:18:45.305Z,60.37
2022-11-24T08:19:45.303Z,61.99
2022-11-24T08:20:45.284Z,60.29
2022-11-24T08:21:45.338Z,59.36
2022-11-24T08:22:45.340Z,60.45
2022-11-24T08:23:45.355Z,60.70
2022-11-24T08:24:45.311Z,58.60
2022-11-24T08:25:45.360Z,60.50
2022-11-24T08:26:45.407Z,61.62
2022-11-24T08:27:45.263Z,61.48
2022-11-24T08:28:45.244Z,59.89
2022-11-24T08:29:45.245Z,59.39
2022-11-24T08:30:45.332Z,61.00
2022-11-24T08:31:45.421Z,60.84
2022-11-24T08:32:45.338Z,61.54
2022-11-24T08:33:45.384Z,60.90
2022-11-24T08:34:45.292Z,61.95
2022-11-24T08:35:45.398Z,60.30
2022-11-24T08:36:49.341Z,60.00
2022-11-24T08:37:46.602Z,60.40
2022-11-24T08:38:45.197Z,60.34
2022-11-24T08:39:46.299Z,60.47
2022-11-24T08:40:45.128Z,59.98
2022-11-24T08:41:45.149Z,59.10
2022-11-24T08:42:45.125Z,61.06
2022-11-24T08:43:45.268Z,59.84
2022-11-24T08:44:45.239Z,61.67
2022-11-24T08:45:45.226Z,59.33
2022-11-24T08:46:45.202Z,59.91
2022-11-24T08:47:45.172Z,59.80
2022-11-24T08:48:45.178Z,59.35
2022-11-24T08:49:45.153Z,71.05
2022-11-24T08:50:45.120Z,64.74
2022-11-24T08:51:45.126Z,62.56
2022-11-24T08:52:45.170Z,63.84
2022-11-24T08:53:45.145Z,63.79
2022-11-24T08:54:45.182Z,64.95
2022-11-24T08:55:45.241Z,63.47
2022-11-24T08:56:45.001Z,61.65
2022-11-24T08:57:45.106Z,62.74
2022-11-24T08:58:45.064Z,61.76
2022-11-24T08:59:45.027Z,62.26
2022-11-24T09:00:45.017Z,61.63
2022-11-24T09:01:45.059Z,60.28
2022-11-24T09:02:44.985Z,62.64
2022-11-24T09:03:50.082Z,67.46
2022-11-24T09:04:47.046Z,61.80
2022-11-24T09:05:53.003Z,59.99
2022-11-24T09:06:47.021Z,59.92
2022-11-24T09:07:45.009Z,60.54
2022-11-24T09:08:45.053Z,59.18
2022-11-24T09:09:45.035Z,59.19
2022-11-24T09:10:45.068Z,59.13
2022-11-24T09:11:45.031Z,57.85
2022-11-24T09:12:45.089Z,57.72
2022-11-24T09:13:44.997Z,58.58
2022-11-24T09:14:44.999Z,61.09
2022-11-24T09:15:45.030Z,58.25
2022-11-24T09:16:44.953Z,59.95
2022-11-24T09:17:44.929Z,61.78
2022-11-24T09:18:45.010Z,58.78
2022-11-24T09:19:44.984Z,60.46
2022-11-24T09:20:44.959Z,56.93
2022-11-24T09:21:44.863Z,58.99
2022-11-24T09:22:44.858Z,60.32
2022-11-24T09:23:44.796Z,60.53
2022-11-24T09:24:44.828Z,59.25
2022-11-24T09:25:44.942Z,58.83
2022-11-24T09:26:47.632Z,59.43
2022-11-24T09:27:45.807Z,59.39
2022-11-24T09:28:44.843Z,59.37
2022-11-24T09:29:44.900Z,60.14
2022-11-24T09:30:44.892Z,61.69
2022-11-24T09:31:44.864Z,59.75
2022-11-24T09:32:44.932Z,59.12
2022-11-24T09:33:44.851Z,59.45
2022-11-24T09:34:44.825Z,65.98
2022-11-24T09:35:44.861Z,64.43
2022-11-24T09:36:44.852Z,62.07
2022-11-24T09:37:44.923Z,62.81
2022-11-24T09:38:44.794Z,60.58
2022-11-24T09:39:44.808Z,58.50
2022-11-24T09:40:44.818Z,59.08
2022-11-24T09:41:44.791Z,60.03
2022-11-24T09:42:49.293Z,60.57
2022-11-24T09:43:46.050Z,59.09
2022-11-24T09:44:44.805Z,60.40
2022-11-24T09:46:06.664Z,61.29
2022-11-24T09:46:46.671Z,60.70
2022-11-24T09:47:44.653Z,59.38
2022-11-24T09:48:45.891Z,60.67
2022-11-24T09:49:49.837Z,60.97
2022-11-24T09:50:46.593Z,60.37
2022-11-24T09:51:44.698Z,59.92
2022-11-24T09:52:44.702Z,60.94
2022-11-24T09:53:44.698Z,62.23
2022-11-24T09:54:44.702Z,64.93
2022-11-24T09:55:44.665Z,62.80
2022-11-24T09:56:44.709Z,67.29
2022-11-24T09:57:44.658Z,66.86
2022-11-24T09:58:44.695Z,62.91
2022-11-24T09:59:44.680Z,64.80
2022-11-24T10:00:44.646Z,65.57
2022-11-24T10:01:44.711Z,67.62
2022-11-24T10:02:44.653Z,67.14
2022-11-24T10:03:44.710Z,69.71
2022-11-24T10:04:44.703Z,66.67
2022-11-24T10:05:44.811Z,64.50
2022-11-24T10:06:44.651Z,63.95
2022-11-24T10:07:44.576Z,63.35
2022-11-24T10:08:44.517Z,64.68
2022-11-24T10:09:44.508Z,65.13
2022-11-24T10:10:44.559Z,66.20
2022-11-24T10:11:44.587Z,66.67
2022-11-24T10:12:44.600Z,65.77
2022-11-24T10:13:44.545Z,66.21
2022-11-24T10:14:44.566Z,69.47
2022-11-24T10:15:44.703Z,63.00
2022-11-24T10:16:44.593Z,61.14
2022-11-24T10:17:44.568Z,61.46
2022-11-24T10:18:44.608Z,60.14
2022-11-24T10:19:44.603Z,59.66
2022-11-24T10:20:44.553Z,59.14
2022-11-24T10:21:44.578Z,59.59
2022-11-24T10:22:44.491Z,57.93
2022-11-24T10:23:44.467Z,59.01
2022-11-24T10:24:44.540Z,58.82
2022-11-24T10:25:44.426Z,60.03
2022-11-24T10:26:44.444Z,60.22
2022-11-24T10:27:44.486Z,58.63
2022-11-24T10:28:44.581Z,58.34
2022-11-24T10:29:44.502Z,59.03
2022-11-24T10:30:44.593Z,59.35
2022-11-24T10:31:44.501Z,58.77
2022-11-24T10:32:44.493Z,61.28
2022-11-24T10:33:44.451Z,58.28
2022-11-24T10:34:44.449Z,57.52
2022-11-24T10:35:44.475Z,56.72
2022-11-24T10:36:44.438Z,59.06
2022-11-24T10:37:44.475Z,58.25
2022-11-24T10:38:44.441Z,57.95
2022-11-24T10:39:44.367Z,55.86
2022-11-24T10:40:59.763Z,58.70
2022-11-24T10:41:46.385Z,57.14
2022-11-24T10:42:44.381Z,58.18
2022-11-24T10:43:44.538Z,56.49
2022-11-24T10:44:44.322Z,57.62
2022-11-24T10:45:44.393Z,58.33
2022-11-24T10:46:44.466Z,56.52
2022-11-24T10:47:44.273Z,56.07
2022-11-24T10:48:44.366Z,59.11
2022-11-24T10:49:44.369Z,59.29
2022-11-24T10:50:44.298Z,56.77
2022-11-24T10:51:44.345Z,58.52
2022-11-24T10:52:44.314Z,58.84
2022-11-24T10:53:44.443Z,59.50
2022-11-24T10:54:44.359Z,60.56
2022-11-24T10:55:44.320Z,59.03
2022-11-24T10:56:44.284Z,59.85
2022-11-24T10:57:44.308Z,59.46
2022-11-24T10:58:44.239Z,61.96
2022-11-24T10:59:44.281Z,68.70
2022-11-24T11:00:44.271Z,65.91
2022-11-24T11:01:44.301Z,66.42
2022-11-24T11:02:44.294Z,60.08
2022-11-24T11:03:44.232Z,59.61
2022-11-24T11:04:44.253Z,59.32
2022-11-24T11:05:44.234Z,60.56
2022-11-24T11:06:44.124Z,58.86
2022-11-24T11:07:44.165Z,58.71
2022-11-24T11:08:44.192Z,56.50
2022-11-24T11:09:44.131Z,58.70
2022-11-24T11:10:44.150Z,58.67
2022-11-24T11:11:44.099Z,60.99
2022-11-24T11:12:45.192Z,59.09
2022-11-24T11:13:45.130Z,59.47
2022-11-24T11:14:44.059Z,57.89
2022-11-24T11:15:44.279Z,59.31
2022-11-24T11:16:44.132Z,59.37
2022-11-24T11:17:44.154Z,59.02
2022-11-24T11:18:44.258Z,60.47
2022-11-24T11:19:54.222Z,58.42
2022-11-24T11:20:46.106Z,60.44
2022-11-24T11:21:44.181Z,58.09
2022-11-24T11:22:44.138Z,59.32
2022-11-24T11:23:44.138Z,59.69
2022-11-24T11:24:44.078Z,60.11
2022-11-24T11:25:44.157Z,58.54
2022-11-24T11:26:45.139Z,58.53
2022-11-24T11:27:44.144Z,57.85
2022-11-24T11:28:44.108Z,59.67
2022-11-24T11:34:02.866Z,59.60
2022-11-24T11:34:03.405Z,55.85
2022-11-24T11:34:45.947Z,58.35
2022-11-24T11:35:43.970Z,57.56
2022-11-24T11:36:43.948Z,57.97
2022-11-24T11:37:43.964Z,60.40
2022-11-24T11:38:43.899Z,61.45
2022-11-24T11:39:48.399Z,58.68
2022-11-24T11:40:46.392Z,60.64
2022-11-24T11:41:43.921Z,62.52
2022-11-24T11:43:01.959Z,59.19
2022-11-24T11:43:45.886Z,58.41
2022-11-24T11:44:44.045Z,56.13
2022-11-24T11:45:44.016Z,59.94
2022-11-24T11:46:43.996Z,58.40
2022-11-24T11:47:43.962Z,57.01
2022-11-24T11:48:44.308Z,56.34
2022-11-24T11:49:43.963Z,58.18
2022-11-24T11:51:15.017Z,60.24
2022-11-24T11:51:45.840Z,58.70
2022-11-24T11:52:43.902Z,59.03
2022-11-24T11:53:43.962Z,58.14
2022-11-24T11:54:43.909Z,57.72
2022-11-24T11:55:49.476Z,56.03
2022-11-24T11:56:45.861Z,60.10
2022-11-24T11:57:43.882Z,59.13
2022-11-24T11:58:44.277Z,61.11
2022-11-24T11:59:43.698Z,58.64
2022-11-24T12:00:43.944Z,59.94
2022-11-24T12:01:43.729Z,59.04
2022-11-24T12:02:47.263Z,59.29
2022-11-24T12:03:46.047Z,58.82
2022-11-24T12:04:43.737Z,60.21
2022-11-24T12:05:43.814Z,59.59
2022-11-24T12:06:43.763Z,60.63
2022-11-24T12:07:44.679Z,59.69
2022-11-24T12:09:11.663Z,60.31
2022-11-24T12:09:45.957Z,57.46
2022-11-24T12:10:44.615Z,59.75
2022-11-24T12:11:46.235Z,58.14
2022-11-24T12:12:43.764Z,60.29
2022-11-24T12:13:43.832Z,60.14
2022-11-24T12:14:43.773Z,59.76
2022-11-24T12:15:43.793Z,58.85
2022-11-24T12:16:43.690Z,60.17
2022-11-24T12:17:43.785Z,58.70
2022-11-24T12:18:59.272Z,61.31
2022-11-24T12:19:45.626Z,60.21
2022-11-24T12:20:43.572Z,58.02
2022-11-24T12:21:43.726Z,60.16
2022-11-24T12:22:43.509Z,61.85
2022-11-24T12:23:43.574Z,60.89
2022-11-24T12:24:43.641Z,60.98
2022-11-24T12:25:43.675Z,62.31
2022-11-24T12:26:44.635Z,63.88
2022-11-24T12:27:43.643Z,62.64
2022-11-24T12:28:43.623Z,61.40
2022-11-24T12:29:43.603Z,61.54
2022-11-24T12:30:43.620Z,62.37
2022-11-24T12:31:43.614Z,64.20
2022-11-24T12:32:43.600Z,62.97
2022-11-24T12:33:50.485Z,62.40
2022-11-24T12:34:45.605Z,64.21
2022-11-24T12:35:44.607Z,63.57
2022-11-24T12:36:43.560Z,62.60
2022-11-24T12:37:43.538Z,64.04
2022-11-24T12:38:43.578Z,62.34
2022-11-24T12:39:43.540Z,64.47
2022-11-24T12:40:46.895Z,62.15
2022-11-24T12:41:44.604Z,63.24
2022-11-24T12:42:43.479Z,63.23
2022-11-24T12:43:43.491Z,63.44
2022-11-24T12:44:43.601Z,62.82
2022-11-24T12:45:43.516Z,61.19
2022-11-24T12:46:43.381Z,62.91
2022-11-24T12:47:43.388Z,62.87
2022-11-24T12:48:43.369Z,61.92
2022-11-24T12:49:43.329Z,63.41
2022-11-24T12:50:43.287Z,65.27
2022-11-24T12:51:43.476Z,62.22
2022-11-24T12:52:43.865Z,61.97
2022-11-24T12:53:43.368Z,61.09
2022-11-24T12:54:43.398Z,60.01
2022-11-24T12:55:43.410Z,62.99